Pagrindinis puslapis
METAR-TAF:

METAR-TAF

Oro uostai :

Sindal, Danija

platuma: 57-30N, ilguma: 010-13E, Aukštis: 28 m

Dabartinis oras

Ataskaita buvo paskelbta 15 minutes, ne 10:50 UTC
Vėjas 16 kt iš Pietų
Temperatūra 18°C
Drėgmė 68%
Slėgis 1022 hPa
Matomumas 10 km arba daugiau
nėra debesų žemiau 1500 m ir nėra kamuolinių lietaus debesų

METAR: EKSN 221050Z 18016KT CAVOK 18/12 Q1022

Laikas: 13:05 (11:05 UTC)

Prognozė

Ataskaita buvo paskelbta 2 valandos ir 7 minutes, ne 08:58 UTC
Prognozė galioja nuo 22 metu 09 UTC su 22 metu 15 UTC
Vėjas 12 kt iš Pietų/Pietvakarių
Matomumas 10 km arba daugiau
Išsisklaidę debesys ne aukštis 4000 ft
Tapsmas
nuo 22 metu 13 UTC su 22 metu 15 UTC
lietus

TAF: EKSN 220858Z 2209/2215 20012KT 9999 SCT040 BECMG 2213/2215 RA

Orai ataskaitas ir orų prognozės (METAR, TAF).

turimą stotys yra geltonos ir raudonos taškus žemėlapyje.

Perkelti pele per norėdami pamatyti stoties vardą.

Tada spustelėkite, norėdami matyti oro stebėjimo ir prognozės.

Norėdami pakeisti žemėlapį: spustelėkite ant žalios mygtukų su juodo kryžiaus žemyn,; žalią mygtuką su brūkšneliu, jei norite nutolinti; arba žalių rodyklių gretimoms žemėlapius.


METAR-TAF: